Time;durP1;ratioP1;P1;durP2;ratioP2;P2;SDS_P1;SDS_P2;PMS_P1;PMS_P2;Temp;Humidity;BMP_temperature;BMP_pressure;BME280_temperature;BME280_humidity;BME280_pressure;Samples;Min_cycle;Max_cycle;Signal;HPM_P1;HPM_P2
2023/06/17 00:02:00;;;;;;;9.48;8.02;;;24.50;64.50;;;;;;4264820;27;20488;-53
2023/06/17 00:04:04;;;;;;;13.10;8.52;;;24.50;64.50;;;;;;4262924;27;20467;-55
2023/06/17 00:06:06;;;;;;;10.30;7.50;;;24.50;64.30;;;;;;4264735;27;20054;-53
2023/06/17 00:08:08;;;;;;;9.55;7.07;;;24.50;64.50;;;;;;4264592;27;20453;-56
2023/06/17 00:10:10;;;;;;;11.35;6.55;;;24.60;64.60;;;;;;4264217;27;20051;-54
2023/06/17 00:12:12;;;;;;;8.60;6.13;;;24.60;64.60;;;;;;4264424;27;20046;-55
2023/06/17 00:14:16;;;;;;;6.82;5.75;;;24.60;64.60;;;;;;4263480;27;20089;-55
2023/06/17 00:16:20;;;;;;;11.75;5.15;;;24.60;64.40;;;;;;4264870;27;20087;-53
2023/06/17 00:18:24;;;;;;;6.65;5.10;;;24.60;64.50;;;;;;4265074;27;20069;-52
2023/06/17 00:20:29;;;;;;;8.73;4.72;;;24.60;64.60;;;;;;4263737;27;20047;-56
2023/06/17 00:22:34;;;;;;;9.80;4.55;;;24.50;64.70;;;;;;4247512;28;20067;-55
2023/06/17 00:24:36;;;;;;;10.98;4.20;;;24.40;64.90;;;;;;4245975;28;20085;-55
2023/06/17 00:26:38;;;;;;;12.82;4.22;;;24.40;65.00;;;;;;4251022;27;20049;-55
2023/06/17 00:28:40;;;;;;;6.57;4.03;;;24.40;64.90;;;;;;4264549;27;20042;-53
2023/06/17 00:30:45;;;;;;;7.32;3.80;;;24.40;64.70;;;;;;4264371;27;20440;-55
2023/06/17 00:32:47;;;;;;;6.22;3.97;;;24.40;65.40;;;;;;4264275;27;20122;-55
2023/06/17 00:34:49;;;;;;;6.13;3.85;;;24.40;65.00;;;;;;4256596;27;20043;-55
2023/06/17 00:36:53;;;;;;;6.43;4.13;;;24.30;65.00;;;;;;4247380;28;20075;-55
2023/06/17 00:38:55;;;;;;;9.18;4.18;;;24.40;65.10;;;;;;4246629;28;20074;-55
2023/06/17 00:40:57;;;;;;;10.70;3.70;;;24.30;65.60;;;;;;4246903;28;20477;-55
2023/06/17 00:42:59;;;;;;;9.10;3.92;;;24.30;65.40;;;;;;4247114;28;20423;-53
2023/06/17 00:45:01;;;;;;;10.63;3.88;;;24.30;65.70;;;;;;4246202;28;20043;-53
2023/06/17 00:47:04;;;;;;;8.15;4.38;;;24.20;66.10;;;;;;4246990;28;20108;-55
2023/06/17 00:49:11;;;;;;;6.80;3.92;;;24.20;65.70;;;;;;4246837;28;20047;-53
2023/06/17 00:51:14;;;;;;;12.02;4.13;;;24.20;65.80;;;;;;4247127;28;20066;-53
2023/06/17 00:53:18;;;;;;;8.15;4.28;;;24.10;66.10;;;;;;4246008;28;20067;-53
2023/06/17 00:55:21;;;;;;;6.70;4.40;;;24.10;65.90;;;;;;4246823;28;20093;-52
2023/06/17 00:57:24;;;;;;;6.80;3.95;;;24.10;66.00;;;;;;4246968;28;20079;-56
2023/06/17 00:59:26;;;;;;;7.97;3.88;;;24.10;66.30;;;;;;4246994;28;20054;-55
2023/06/17 01:01:29;;;;;;;5.22;3.67;;;24.10;66.10;;;;;;4246777;28;20044;-54
2023/06/17 01:03:31;;;;;;;7.13;3.95;;;24.00;67.20;;;;;;4245858;28;20477;-55
2023/06/17 01:05:34;;;;;;;5.88;3.97;;;24.00;67.90;;;;;;4247047;28;20469;-54
2023/06/17 01:07:42;;;;;;;10.02;3.95;;;24.00;67.70;;;;;;4246555;28;20043;-55
2023/06/17 01:09:50;;;;;;;8.32;4.00;;;23.90;66.70;;;;;;4246835;28;20100;-54
2023/06/17 01:11:55;;;;;;;8.50;3.55;;;23.90;66.50;;;;;;4246967;28;20142;-56
2023/06/17 01:13:59;;;;;;;7.28;4.18;;;23.90;66.00;;;;;;4246476;27;20047;-55
2023/06/17 01:16:02;;;;;;;11.50;4.38;;;23.90;66.40;;;;;;4249804;27;20043;-56
2023/06/17 01:18:11;;;;;;;6.93;4.13;;;23.90;66.10;;;;;;4250005;27;20480;-54
2023/06/17 01:20:18;;;;;;;6.82;4.03;;;24.00;66.00;;;;;;4249884;27;20077;-55
2023/06/17 01:22:23;;;;;;;6.70;4.18;;;24.00;65.80;;;;;;4249577;27;20051;-52
2023/06/17 01:24:28;;;;;;;6.30;3.80;;;24.00;65.80;;;;;;4248632;27;20043;-52
2023/06/17 01:26:31;;;;;;;7.03;4.03;;;24.00;65.80;;;;;;4249719;27;20091;-53
2023/06/17 01:28:36;;;;;;;6.55;3.78;;;24.00;65.90;;;;;;4249866;27;20051;-55
2023/06/17 01:30:38;;;;;;;5.10;3.95;;;24.00;65.80;;;;;;4249768;27;20114;-55
2023/06/17 01:32:41;;;;;;;8.48;3.67;;;24.00;66.50;;;;;;4250112;27;20048;-54
2023/06/17 01:34:51;;;;;;;6.57;3.65;;;23.90;66.70;;;;;;4249205;27;20405;-56
2023/06/17 01:36:55;;;;;;;7.65;3.83;;;23.90;66.60;;;;;;4266713;27;20051;-54
2023/06/17 01:39:01;;;;;;;;;;;23.90;66.50;;;;;;4267371;27;20443;-53
2023/06/17 01:41:09;;;;;;;6.35;4.10;;;23.90;66.60;;;;;;4266667;27;20010;-53
2023/06/17 01:43:15;;;;;;;8.20;4.00;;;23.90;66.70;;;;;;4266807;27;20062;-53
2023/06/17 01:45:18;;;;;;;7.57;4.25;;;23.90;66.60;;;;;;4265951;27;20078;-55
2023/06/17 01:47:20;;;;;;;6.32;3.38;;;23.90;66.40;;;;;;4266702;27;20445;-53
2023/06/17 01:49:22;;;;;;;5.95;4.13;;;23.90;66.70;;;;;;4266421;27;20046;-52
2023/06/17 01:51:24;;;;;;;6.00;3.83;;;23.90;67.20;;;;;;4266445;27;20217;-57
2023/06/17 01:53:27;;;;;;;5.30;4.45;;;23.90;67.00;;;;;;4247290;27;20047;-54
2023/06/17 01:55:29;;;;;;;8.63;4.45;;;23.90;67.60;;;;;;4266377;27;20063;-54
2023/06/17 01:57:32;;;;;;;7.97;4.00;;;23.90;68.30;;;;;;4266498;27;20072;-53
2023/06/17 01:59:34;;;;;;;6.40;5.07;;;23.90;68.10;;;;;;4266650;27;20046;-55
2023/06/17 02:01:37;;;;;;;7.32;4.40;;;23.90;68.20;;;;;;4266381;27;20133;-55
2023/06/17 02:03:42;;;;;;;11.52;4.63;;;23.90;68.50;;;;;;4265591;27;20259;-55
2023/06/17 02:05:44;;;;;;;5.93;4.60;;;23.80;69.20;;;;;;4266235;27;20449;-55
2023/06/17 02:07:47;;;;;;;9.88;4.95;;;23.70;69.00;;;;;;4266512;27;20046;-53
2023/06/17 02:09:49;;;;;;;9.65;5.03;;;23.70;69.50;;;;;;4266245;27;20046;-55
2023/06/17 02:11:51;;;;;;;10.02;4.95;;;23.60;69.90;;;;;;4266378;27;20520;-56
2023/06/17 02:13:55;;;;;;;10.10;5.97;;;23.60;70.60;;;;;;4265204;27;20051;-55
2023/06/17 02:15:57;;;;;;;8.60;5.75;;;23.50;70.20;;;;;;4266547;27;20388;-63
2023/06/17 02:18:00;;;;;;;9.77;5.50;;;23.50;70.70;;;;;;4267137;27;20047;-60
2023/06/17 02:20:06;;;;;;;10.07;5.60;;;23.50;70.50;;;;;;4266547;27;20059;-56
2023/06/17 02:22:08;;;;;;;8.15;5.50;;;23.50;70.60;;;;;;4251127;27;20043;-55
2023/06/17 02:24:10;;;;;;;10.75;5.72;;;23.50;70.60;;;;;;4248198;27;20046;-56
2023/06/17 02:26:12;;;;;;;11.35;5.80;;;23.40;70.90;;;;;;4248337;27;20051;-56
2023/06/17 02:28:14;;;;;;;10.00;6.03;;;23.40;71.10;;;;;;4265731;27;20070;-55
2023/06/17 02:30:18;;;;;;;9.18;5.47;;;23.30;71.70;;;;;;4265943;27;20066;-55
2023/06/17 02:32:21;;;;;;;10.63;6.07;;;23.30;71.10;;;;;;4265941;27;20121;-55
2023/06/17 02:34:23;;;;;;;10.55;5.50;;;23.30;71.10;;;;;;4259506;27;20049;-55
2023/06/17 02:36:25;;;;;;;10.40;5.25;;;23.30;72.60;;;;;;4232328;27;20139;-55
2023/06/17 02:38:28;;;;;;;11.65;5.68;;;23.20;72.40;;;;;;4248513;27;20039;-54
2023/06/17 02:40:30;;;;;;;7.53;5.70;;;23.20;72.70;;;;;;4248597;27;20134;-55
2023/06/17 02:42:32;;;;;;;12.90;6.38;;;23.10;73.10;;;;;;4248250;27;20051;-55
2023/06/17 02:44:35;;;;;;;6.45;5.22;;;23.10;72.90;;;;;;4247523;27;20084;-54
2023/06/17 02:46:39;;;;;;;9.95;5.32;;;23.00;73.20;;;;;;4248701;27;20131;-54
2023/06/17 02:48:41;;;;;;;8.63;5.30;;;23.00;73.60;;;;;;4248611;27;20051;-55
2023/06/17 02:50:43;;;;;;;6.70;5.03;;;23.00;73.70;;;;;;4248121;27;20453;-54
2023/06/17 02:52:47;;;;;;;6.90;5.20;;;22.90;74.30;;;;;;4248471;27;20071;-55
2023/06/17 02:54:50;;;;;;;8.57;4.68;;;22.90;73.60;;;;;;4247404;27;20397;-55
2023/06/17 02:56:52;;;;;;;7.03;5.18;;;22.80;74.40;;;;;;4248329;27;20086;-54
2023/06/17 02:58:54;;;;;;;7.60;5.28;;;22.80;73.80;;;;;;4230216;28;20463;-55
2023/06/17 03:00:57;;;;;;;7.38;4.20;;;22.80;73.90;;;;;;4230015;28;20058;-53
2023/06/17 03:03:01;;;;;;;8.05;4.45;;;22.90;72.20;;;;;;4229838;28;20052;-54
2023/06/17 03:05:06;;;;;;;6.50;3.78;;;22.90;73.20;;;;;;4246783;27;20084;-56
2023/06/17 03:07:08;;;;;;;8.27;3.90;;;22.90;71.90;;;;;;4248163;27;20083;-54
2023/06/17 03:09:11;;;;;;;6.03;3.50;;;22.90;71.30;;;;;;4248212;27;20539;-55
2023/06/17 03:11:13;;;;;;;6.63;3.70;;;22.90;71.70;;;;;;4229576;28;20490;-53
2023/06/17 03:13:15;;;;;;;9.18;3.90;;;22.90;71.60;;;;;;4229805;28;20153;-54
2023/06/17 03:15:17;;;;;;;7.47;3.90;;;22.90;72.10;;;;;;4246917;27;20495;-57
2023/06/17 03:17:21;;;;;;;4.65;3.83;;;23.00;71.60;;;;;;4247984;27;20047;-56
2023/06/17 03:19:25;;;;;;;7.55;3.72;;;23.00;71.60;;;;;;4247722;27;20043;-56
2023/06/17 03:21:29;;;;;;;7.80;3.92;;;23.10;71.20;;;;;;4247785;27;20062;-57
2023/06/17 03:23:31;;;;;;;5.95;4.03;;;23.10;71.30;;;;;;4247672;27;20039;-56
2023/06/17 03:25:33;;;;;;;5.53;3.92;;;23.10;72.00;;;;;;4247057;27;20066;-56
2023/06/17 03:27:35;;;;;;;5.97;3.65;;;23.00;71.60;;;;;;4247946;27;20049;-56
2023/06/17 03:29:37;;;;;;;5.57;4.00;;;23.10;72.10;;;;;;4247916;27;20043;-53
2023/06/17 03:31:40;;;;;;;4.80;3.22;;;23.10;71.30;;;;;;4247592;27;20044;-54
2023/06/17 03:33:42;;;;;;;5.20;3.60;;;23.10;72.10;;;;;;4246634;27;20047;-54
2023/06/17 03:35:45;;;;;;;4.97;3.65;;;23.10;70.50;;;;;;4256736;27;20051;-53
2023/06/17 03:37:47;;;;;;;9.93;3.60;;;23.20;70.50;;;;;;4263852;27;20118;-54
2023/06/17 03:39:49;;;;;;;9.82;3.67;;;23.20;70.10;;;;;;4264756;27;20042;-53
2023/06/17 03:41:56;;;;;;;6.00;3.90;;;23.20;70.20;;;;;;4264763;27;20046;-54
2023/06/17 03:43:58;;;;;;;6.32;3.58;;;23.20;71.10;;;;;;4263762;27;20043;-53
2023/06/17 03:46:00;;;;;;;3.67;3.30;;;23.30;70.30;;;;;;4264782;27;20051;-54
2023/06/17 03:48:03;;;;;;;6.30;3.83;;;23.20;70.20;;;;;;4264524;27;20600;-54
2023/06/17 03:50:07;;;;;;;4.40;3.17;;;23.30;70.00;;;;;;4264466;27;20046;-53
2023/06/17 03:52:11;;;;;;;8.45;3.70;;;23.30;70.10;;;;;;4264561;27;20046;-53
2023/06/17 03:54:13;;;;;;;6.82;3.90;;;23.30;69.90;;;;;;4263565;27;20051;-53
2023/06/17 03:56:15;;;;;;;8.40;4.38;;;23.30;70.10;;;;;;4264492;27;20099;-53
2023/06/17 03:58:17;;;;;;;10.48;4.25;;;23.30;70.70;;;;;;4264687;27;20054;-53
2023/06/17 04:00:19;;;;;;;6.07;3.85;;;23.30;70.80;;;;;;4264547;27;20053;-54
2023/06/17 04:02:22;;;;;;;9.25;3.60;;;23.30;70.30;;;;;;4264505;27;20438;-54
2023/06/17 04:04:24;;;;;;;8.95;4.00;;;23.40;70.70;;;;;;4263587;27;20046;-53
2023/06/17 04:06:26;;;;;;;7.18;3.58;;;23.40;70.60;;;;;;4246117;27;20435;-53
2023/06/17 04:08:32;;;;;;;5.97;3.60;;;23.30;70.20;;;;;;4264633;27;20404;-52
2023/06/17 04:10:35;;;;;;;5.78;3.75;;;23.40;70.20;;;;;;4264544;27;20051;-54
2023/06/17 04:12:37;;;;;;;6.05;3.42;;;23.40;70.50;;;;;;4264736;27;20133;-54
2023/06/17 04:14:40;;;;;;;7.88;3.95;;;23.30;70.20;;;;;;4263850;27;20043;-55
2023/06/17 04:16:42;;;;;;;5.25;3.67;;;23.40;70.30;;;;;;4264572;27;20393;-54
2023/06/17 04:18:44;;;;;;;6.22;3.53;;;23.30;70.60;;;;;;4246646;27;20062;-55
2023/06/17 04:20:46;;;;;;;8.50;3.88;;;23.30;70.40;;;;;;4261043;27;20485;-56
2023/06/17 04:22:48;;;;;;;6.13;3.72;;;23.30;70.30;;;;;;4229250;28;20044;-55
2023/06/17 04:24:55;;;;;;;5.60;3.47;;;23.30;70.70;;;;;;4246358;28;20039;-54
2023/06/17 04:26:58;;;;;;;5.40;3.53;;;23.30;70.70;;;;;;4253829;27;20403;-56
2023/06/17 04:29:03;;;;;;;8.70;3.53;;;23.20;70.50;;;;;;4264363;27;20492;-53
2023/06/17 04:31:05;;;;;;;6.55;3.70;;;23.20;71.10;;;;;;4264133;27;20054;-54
2023/06/17 04:33:11;;;;;;;7.38;3.78;;;23.20;70.50;;;;;;4264315;27;20039;-58
2023/06/17 04:35:13;;;;;;;10.77;3.58;;;23.20;70.70;;;;;;4253186;27;20140;-54
2023/06/17 04:37:16;;;;;;;7.43;4.03;;;23.20;70.60;;;;;;4246940;28;20287;-54
2023/06/17 04:39:18;;;;;;;4.88;3.72;;;23.20;70.20;;;;;;4247200;28;20068;-54
2023/06/17 04:41:21;;;;;;;7.50;3.70;;;23.10;70.20;;;;;;4246889;28;20051;-54
2023/06/17 04:43:24;;;;;;;7.63;4.05;;;23.10;70.50;;;;;;4246954;28;20051;-54
2023/06/17 04:45:27;;;;;;;6.97;3.63;;;23.20;70.60;;;;;;4245743;28;20047;-56
2023/06/17 04:47:29;;;;;;;5.00;3.50;;;23.20;70.60;;;;;;4247132;28;20073;-56
2023/06/17 04:49:38;;;;;;;6.53;3.80;;;23.20;70.60;;;;;;4248463;27;20043;-55
2023/06/17 04:51:41;;;;;;;7.32;3.88;;;23.20;70.50;;;;;;4250130;27;20051;-57
2023/06/17 04:53:44;;;;;;;9.00;3.55;;;23.30;71.30;;;;;;4250509;27;20066;-57
2023/06/17 04:55:46;;;;;;;5.47;3.60;;;23.30;71.00;;;;;;4249381;27;20142;-56
2023/06/17 04:57:50;;;;;;;10.55;4.10;;;23.30;70.50;;;;;;4250551;27;20043;-57
2023/06/17 04:59:52;;;;;;;9.57;4.07;;;23.40;70.90;;;;;;4249954;27;20578;-57
2023/06/17 05:01:54;;;;;;;9.98;4.20;;;23.50;70.60;;;;;;4250265;27;20185;-57
2023/06/17 05:03:56;;;;;;;9.95;4.03;;;23.50;70.60;;;;;;4249984;27;20500;-52
2023/06/17 05:05:58;;;;;;;8.15;3.42;;;23.50;70.40;;;;;;4249761;27;20039;-54
2023/06/17 05:08:00;;;;;;;7.68;3.30;;;23.50;70.80;;;;;;4250437;27;20419;-56
2023/06/17 05:10:03;;;;;;;6.05;3.72;;;23.50;70.80;;;;;;4231722;28;20043;-55
2023/06/17 05:12:05;;;;;;;14.75;4.78;;;23.50;70.30;;;;;;4250296;27;20151;-53
2023/06/17 05:14:09;;;;;;;8.13;3.60;;;23.50;70.50;;;;;;4249094;27;20047;-53
2023/06/17 05:16:11;;;;;;;10.10;3.90;;;23.50;70.10;;;;;;4251012;27;20043;-55
2023/06/17 05:18:14;;;;;;;6.35;3.40;;;23.50;70.50;;;;;;4251853;27;20074;-58
2023/06/17 05:20:16;;;;;;;9.68;4.15;;;23.60;70.10;;;;;;4250795;27;20050;-56
2023/06/17 05:22:18;;;;;;;6.72;3.45;;;23.50;69.70;;;;;;4250244;27;20053;-55
2023/06/17 05:24:20;;;;;;;6.40;3.40;;;23.60;70.60;;;;;;4249099;27;20210;-53
2023/06/17 05:26:22;;;;;;;6.45;4.07;;;23.60;69.80;;;;;;4249617;27;20039;-54
2023/06/17 05:28:25;;;;;;;7.88;3.83;;;23.60;70.00;;;;;;4231345;28;20065;-56
2023/06/17 05:30:28;;;;;;;5.68;3.50;;;23.60;69.50;;;;;;4249963;27;20072;-55
2023/06/17 05:32:30;;;;;;;9.80;3.50;;;23.70;69.40;;;;;;4249567;27;20047;-54
2023/06/17 05:34:32;;;;;;;7.32;3.78;;;23.80;70.00;;;;;;4248543;27;20039;-53
2023/06/17 05:36:34;;;;;;;6.80;3.75;;;23.80;69.60;;;;;;4265168;27;20217;-53
2023/06/17 05:38:37;;;;;;;7.75;3.40;;;23.90;70.00;;;;;;4266889;27;20039;-55
2023/06/17 05:40:39;;;;;;;6.65;3.47;;;23.90;69.50;;;;;;4266719;27;20051;-54
2023/06/17 05:42:41;;;;;;;7.05;3.78;;;24.00;69.70;;;;;;4266698;27;20057;-53
2023/06/17 05:44:43;;;;;;;10.50;4.25;;;24.00;69.70;;;;;;4265649;27;20412;-54
2023/06/17 05:46:46;;;;;;;5.60;3.65;;;23.90;68.70;;;;;;4266848;27;20111;-52
2023/06/17 05:48:48;;;;;;;8.75;3.75;;;24.00;69.80;;;;;;4267108;27;20099;-56
2023/06/17 05:50:50;;;;;;;7.70;3.90;;;24.00;69.40;;;;;;4266349;27;20117;-56
2023/06/17 05:52:53;;;;;;;6.22;3.38;;;24.00;69.10;;;;;;4266823;27;20121;-53
2023/06/17 05:54:55;;;;;;;9.15;3.30;;;24.00;68.60;;;;;;4265570;27;20077;-55
2023/06/17 05:56:57;;;;;;;4.95;3.40;;;24.10;68.40;;;;;;4266493;27;20467;-57
2023/06/17 05:58:59;;;;;;;4.13;3.63;;;24.10;69.20;;;;;;4266339;27;20065;-56
2023/06/17 06:01:01;;;;;;;10.73;3.33;;;24.20;68.80;;;;;;4265375;27;20054;-56
2023/06/17 06:03:04;;;;;;;7.53;3.67;;;24.30;68.80;;;;;;4266502;27;20046;-53
2023/06/17 06:05:07;;;;;;;4.43;3.30;;;24.30;70.30;;;;;;4265382;27;20404;-56
2023/06/17 06:07:10;;;;;;;10.13;3.92;;;24.30;69.50;;;;;;4266381;27;20054;-56
2023/06/17 06:09:12;;;;;;;8.52;3.72;;;24.30;68.50;;;;;;4266847;27;20059;-55
2023/06/17 06:11:15;;;;;;;15.15;3.83;;;24.40;68.20;;;;;;4266219;27;20054;-56
2023/06/17 06:13:17;;;;;;;13.15;3.95;;;24.50;68.20;;;;;;4265804;27;20085;-54
2023/06/17 06:15:19;;;;;;;5.82;3.83;;;24.40;68.30;;;;;;4266281;27;20169;-63
2023/06/17 06:17:21;;;;;;;6.68;3.95;;;24.50;69.50;;;;;;4248416;27;20100;-54
2023/06/17 06:19:24;;;;;;;4.53;3.25;;;24.60;68.50;;;;;;4266743;27;20051;-53
2023/06/17 06:21:27;;;;;;;9.75;3.45;;;24.70;69.00;;;;;;4256986;27;20058;-54
2023/06/17 06:23:29;;;;;;;6.68;3.70;;;24.80;68.50;;;;;;4249278;27;20484;-54
2023/06/17 06:25:31;;;;;;;5.68;3.38;;;24.80;68.40;;;;;;4248288;27;20108;-54
2023/06/17 06:27:33;;;;;;;10.68;4.10;;;24.90;68.40;;;;;;4260397;27;20047;-53
2023/06/17 06:29:35;;;;;;;9.32;3.35;;;25.00;68.00;;;;;;4266085;27;20119;-53
2023/06/17 06:31:37;;;;;;;7.35;3.80;;;25.10;68.50;;;;;;4265984;27;20120;-54
2023/06/17 06:33:39;;;;;;;9.30;3.65;;;25.10;68.00;;;;;;4265177;27;20398;-57
2023/06/17 06:35:43;;;;;;;6.85;3.80;;;25.20;67.70;;;;;;4251892;27;20122;-53
2023/06/17 06:37:45;;;;;;;8.18;3.38;;;25.30;67.50;;;;;;4248672;27;20054;-54
2023/06/17 06:39:48;;;;;;;10.23;3.30;;;25.30;68.30;;;;;;4248740;27;20122;-54
2023/06/17 06:41:51;;;;;;;7.03;2.90;;;25.40;67.20;;;;;;4248320;27;20134;-54
2023/06/17 06:43:53;;;;;;;5.75;3.50;;;25.50;67.20;;;;;;4248524;27;20043;-55
2023/06/17 06:45:55;;;;;;;6.38;3.20;;;25.50;65.90;;;;;;4247478;27;20053;-53
2023/06/17 06:47:57;;;;;;;9.88;3.40;;;25.60;66.10;;;;;;4248647;27;20459;-54
2023/06/17 06:50:00;;;;;;;5.22;3.33;;;25.60;66.30;;;;;;4248589;27;20139;-54
2023/06/17 06:52:03;;;;;;;9.13;3.33;;;25.70;66.50;;;;;;4248571;27;20125;-54
2023/06/17 06:54:06;;;;;;;;;;;25.60;66.60;;;;;;4249275;27;20144;-54
2023/06/17 06:56:08;;;;;;;9.55;3.20;;;25.60;66.40;;;;;;4246763;27;19958;-54
2023/06/17 06:58:10;;;;;;;9.60;3.47;;;25.60;66.00;;;;;;4248534;27;20047;-53
2023/06/17 07:00:14;;;;;;;6.47;3.75;;;25.70;66.40;;;;;;4248365;27;20067;-54
2023/06/17 07:02:16;;;;;;;8.20;4.07;;;25.70;65.20;;;;;;4248504;27;20141;-53
2023/06/17 07:04:20;;;;;;;7.15;3.63;;;25.60;65.60;;;;;;4247921;27;20050;-55
2023/06/17 07:06:22;;;;;;;6.40;3.33;;;25.70;66.40;;;;;;4248119;27;20370;-54
2023/06/17 07:08:26;;;;;;;6.82;3.13;;;25.60;65.70;;;;;;4248266;27;20067;-53
2023/06/17 07:10:28;;;;;;;6.45;3.03;;;25.60;65.80;;;;;;4247772;27;20051;-54
2023/06/17 07:12:30;;;;;;;3.22;2.88;;;25.70;64.90;;;;;;4247803;27;20409;-54
2023/06/17 07:14:32;;;;;;;6.03;3.20;;;25.70;64.80;;;;;;4247236;27;20066;-53
2023/06/17 07:16:34;;;;;;;5.13;2.80;;;25.80;65.50;;;;;;4229712;28;20039;-53
2023/06/17 07:18:36;;;;;;;6.68;3.67;;;25.80;64.80;;;;;;4247997;27;20386;-53
2023/06/17 07:20:39;;;;;;;14.52;3.50;;;25.90;65.10;;;;;;4247839;27;20122;-55
2023/06/17 07:22:42;;;;;;;7.38;3.28;;;25.90;65.80;;;;;;4247897;27;20107;-54
2023/06/17 07:24:46;;;;;;;7.32;3.28;;;26.10;65.80;;;;;;4246587;27;20050;-53
2023/06/17 07:26:48;;;;;;;7.82;3.28;;;26.00;66.10;;;;;;4247707;27;20070;-54
2023/06/17 07:28:50;;;;;;;8.70;3.42;;;26.10;67.40;;;;;;4247671;27;20071;-54
2023/06/17 07:30:52;;;;;;;8.48;3.40;;;26.20;67.40;;;;;;4247702;27;20051;-54
2023/06/17 07:32:55;;;;;;;5.65;3.70;;;26.10;66.40;;;;;;4247683;27;20071;-53
2023/06/17 07:34:57;;;;;;;8.48;3.70;;;26.00;66.70;;;;;;4249119;27;20088;-54
2023/06/17 07:37:00;;;;;;;5.43;3.50;;;26.00;66.10;;;;;;4264780;27;20503;-54
2023/06/17 07:39:03;;;;;;;5.57;3.60;;;26.10;66.10;;;;;;4264742;27;20047;-54
2023/06/17 07:41:06;;;;;;;4.57;3.25;;;26.20;67.60;;;;;;4264665;27;20131;-53
2023/06/17 07:43:09;;;;;;;11.02;3.17;;;26.10;66.90;;;;;;4264647;27;20050;-53
2023/06/17 07:45:11;;;;;;;5.82;3.50;;;26.20;68.90;;;;;;4263709;27;20456;-53
2023/06/17 07:47:14;;;;;;;5.32;3.22;;;26.10;70.30;;;;;;4246220;27;20126;-54
2023/06/17 07:49:16;;;;;;;6.65;3.65;;;26.10;67.20;;;;;;4264710;27;20404;-54
2023/06/17 07:51:18;;;;;;;7.53;3.30;;;26.10;67.80;;;;;;4264583;27;20081;-54
2023/06/17 07:53:20;;;;;;;5.10;3.45;;;26.10;67.30;;;;;;4246286;27;20047;-54
2023/06/17 07:55:22;;;;;;;10.40;3.08;;;26.00;68.10;;;;;;4263386;27;20043;-54
2023/06/17 07:57:25;;;;;;;6.60;3.25;;;25.90;67.00;;;;;;4264442;27;20043;-53
2023/06/17 07:59:28;;;;;;;4.65;3.30;;;25.90;66.90;;;;;;4264486;27;20068;-54
2023/06/17 08:01:32;;;;;;;7.15;3.58;;;25.90;65.80;;;;;;4264438;27;20039;-54
2023/06/17 08:03:34;;;;;;;7.85;2.92;;;25.90;66.10;;;;;;4264659;27;20046;-54
2023/06/17 08:05:36;;;;;;;9.00;3.20;;;25.90;66.50;;;;;;4263619;27;20067;-54
2023/06/17 08:07:38;;;;;;;7.95;3.30;;;26.00;66.40;;;;;;4264821;27;20046;-53
2023/06/17 08:09:41;;;;;;;7.25;3.55;;;26.00;65.40;;;;;;4264518;27;20083;-54
2023/06/17 08:11:43;;;;;;;5.43;3.30;;;26.00;65.70;;;;;;4264773;27;20049;-54
2023/06/17 08:13:46;;;;;;;8.18;3.08;;;26.10;65.20;;;;;;4265506;27;20103;-54
2023/06/17 08:15:49;;;;;;;5.72;3.10;;;26.10;65.50;;;;;;4263303;27;20047;-54
2023/06/17 08:17:52;;;;;;;10.60;3.58;;;26.00;64.60;;;;;;4264605;27;20485;-53
2023/06/17 08:19:55;;;;;;;6.28;2.83;;;26.10;65.30;;;;;;4263186;27;20054;-54
2023/06/17 08:21:58;;;;;;;6.47;3.35;;;26.10;65.20;;;;;;4250478;27;20400;-53
2023/06/17 08:24:16;;;;;;;12.50;3.42;;;26.10;65.20;;;;;;4247409;27;20081;-53
2023/06/17 08:26:18;;;;;;;7.25;3.60;;;26.10;66.20;;;;;;4250397;27;20051;-55
2023/06/17 08:28:21;;;;;;;6.50;3.13;;;26.30;66.10;;;;;;4267881;27;20117;-54
2023/06/17 08:30:24;;;;;;;4.80;3.00;;;26.30;65.60;;;;;;4267953;27;20057;-54
2023/06/17 08:32:26;;;;;;;5.00;3.25;;;26.50;65.40;;;;;;4267760;27;20130;-54
2023/06/17 08:34:30;;;;;;;4.50;3.05;;;26.60;64.70;;;;;;4262542;27;20752;-54
2023/06/17 08:36:34;;;;;;;6.80;3.83;;;26.60;63.30;;;;;;4250309;27;20095;-54
2023/06/17 08:38:37;;;;;;;7.93;3.42;;;26.70;64.00;;;;;;4250293;27;20131;-54
2023/06/17 08:40:44;;;;;;;5.40;2.85;;;26.80;63.60;;;;;;4250189;27;20039;-54
2023/06/17 08:42:50;;;;;;;6.65;3.45;;;26.90;64.00;;;;;;4250253;27;20134;-52
2023/06/17 08:44:54;;;;;;;8.40;2.85;;;27.00;63.60;;;;;;4249639;27;20130;-52
2023/06/17 08:47:00;;;;;;;7.50;2.73;;;27.20;63.30;;;;;;4250168;27;20493;-52
2023/06/17 08:49:02;;;;;;;8.57;3.35;;;27.30;63.10;;;;;;4250353;27;20051;-56
2023/06/17 08:51:05;;;;;;;6.10;3.03;;;27.30;62.70;;;;;;4250266;27;20126;-56
2023/06/17 08:53:07;;;;;;;5.35;3.40;;;27.40;63.00;;;;;;4249945;27;20427;-55
2023/06/17 08:55:09;;;;;;;7.40;2.90;;;27.30;62.40;;;;;;4248653;27;20047;-57
2023/06/17 08:57:12;;;;;;;6.35;3.35;;;27.60;62.80;;;;;;4250116;27;20047;-55
2023/06/17 08:59:15;;;;;;;5.30;3.22;;;27.70;62.60;;;;;;4250547;27;20043;-55
2023/06/17 09:01:17;;;;;;;8.57;3.50;;;27.90;63.00;;;;;;4253554;27;20066;-55
2023/06/17 09:03:23;;;;;;;8.50;3.28;;;28.10;63.40;;;;;;4257835;27;20050;-58
2023/06/17 09:05:26;;;;;;;9.55;4.13;;;28.00;63.20;;;;;;4249438;27;20512;-55
2023/06/17 09:07:28;;;;;;;8.60;3.55;;;28.10;62.90;;;;;;4252086;27;20049;-58
2023/06/17 09:09:30;;;;;;;7.00;3.47;;;28.20;63.00;;;;;;4249499;27;20050;-57
2023/06/17 09:11:32;;;;;;;7.38;4.13;;;28.30;62.40;;;;;;4253367;27;20050;-57
2023/06/17 09:13:35;;;;;;;7.40;3.40;;;28.30;63.10;;;;;;4262219;27;20362;-57
2023/06/17 09:15:40;;;;;;;9.05;3.78;;;28.40;62.70;;;;;;4263470;27;20122;-58
2023/06/17 09:17:42;;;;;;;;;;;28.50;63.00;;;;;;4261572;27;20035;-58
2023/06/17 09:19:46;;;;;;;16.63;4.72;;;28.50;63.50;;;;;;4258624;27;19933;-55
2023/06/17 09:21:48;;;;;;;10.95;4.15;;;28.60;62.40;;;;;;4257557;27;20055;-54
2023/06/17 09:23:54;;;;;;;10.43;4.00;;;28.60;62.70;;;;;;4261622;27;20050;-57
2023/06/17 09:26:01;;;;;;;6.35;3.88;;;28.60;62.60;;;;;;4263706;27;20065;-53
2023/06/17 09:28:04;;;;;;;12.32;4.10;;;28.70;63.40;;;;;;4253940;27;20403;-53
2023/06/17 09:30:20;;;;;;;11.05;4.15;;;28.80;63.70;;;;;;4266221;27;20066;-56
2023/06/17 09:32:23;;;;;;;6.28;3.85;;;29.00;62.70;;;;;;4256055;27;20096;-57
2023/06/17 09:34:26;;;;;;;10.52;4.55;;;29.10;63.20;;;;;;4249036;27;20061;-58
2023/06/17 09:36:30;;;;;;;9.13;4.32;;;29.20;63.20;;;;;;4254998;27;20119;-55
2023/06/17 09:38:32;;;;;;;6.78;4.20;;;29.30;63.10;;;;;;4260360;27;20465;-57
2023/06/17 09:40:34;;;;;;;7.82;4.38;;;29.40;62.30;;;;;;4249216;27;20397;-58
2023/06/17 09:42:37;;;;;;;12.27;7.68;;;29.60;62.80;;;;;;4257830;27;20054;-57
2023/06/17 09:44:40;;;;;;;8.32;5.00;;;29.60;63.20;;;;;;4234210;27;20061;-55
2023/06/17 09:46:46;;;;;;;5.93;4.38;;;29.50;63.00;;;;;;4248807;27;20113;-57
2023/06/17 09:48:51;;;;;;;7.20;4.55;;;29.50;63.00;;;;;;4260419;27;20110;-55
2023/06/17 09:50:57;;;;;;;8.02;4.97;;;29.70;63.00;;;;;;4248485;27;20049;-56
2023/06/17 09:53:01;;;;;;;10.60;4.47;;;29.80;63.00;;;;;;4257872;27;20053;-55
2023/06/17 09:55:05;;;;;;;8.00;5.03;;;29.90;63.80;;;;;;4250910;27;20043;-54
2023/06/17 09:57:09;;;;;;;6.90;4.38;;;29.90;62.70;;;;;;4249391;27;20500;-53
2023/06/17 09:59:12;;;;;;;9.55;4.60;;;30.00;63.00;;;;;;4259751;27;20039;-56
2023/06/17 10:01:16;;;;;;;8.73;5.20;;;30.20;61.90;;;;;;4248339;27;20054;-52
2023/06/17 10:03:18;;;;;;;8.00;4.70;;;30.10;62.10;;;;;;4256959;27;20068;-55
2023/06/17 10:05:20;;;;;;;6.55;5.03;;;30.10;62.40;;;;;;4250808;27;20201;-53
2023/06/17 10:07:26;;;;;;;10.30;5.00;;;30.30;62.90;;;;;;4249483;27;20066;-53
2023/06/17 10:09:30;;;;;;;6.45;4.20;;;30.40;62.90;;;;;;4259504;27;20069;-55
2023/06/17 10:11:34;;;;;;;6.45;4.47;;;30.60;62.80;;;;;;4265672;27;20160;-55
2023/06/17 10:13:39;;;;;;;7.53;4.68;;;30.20;61.50;;;;;;4256556;27;20458;-55
2023/06/17 10:15:41;;;;;;;;;;;30.60;61.60;;;;;;4261528;27;20129;-57
2023/06/17 10:17:45;;;;;;;8.07;5.20;;;30.60;62.50;;;;;;4258338;27;19936;-57
2023/06/17 10:19:48;;;;;;;15.23;5.32;;;30.50;62.60;;;;;;4253474;27;20043;-55
2023/06/17 10:21:55;;;;;;;6.18;4.78;;;30.40;62.30;;;;;;4252894;27;20096;-57
2023/06/17 10:24:00;;;;;;;7.05;5.18;;;30.40;61.80;;;;;;4256653;27;20437;-58
2023/06/17 10:26:06;;;;;;;8.50;5.07;;;30.50;62.10;;;;;;4250541;27;20071;-57
2023/06/17 10:28:08;;;;;;;9.00;5.10;;;30.60;62.50;;;;;;4248016;27;20054;-55
2023/06/17 10:30:23;;;;;;;9.80;5.10;;;30.60;62.20;;;;;;4259732;27;20122;-55
2023/06/17 10:32:26;;;;;;;5.55;4.97;;;30.70;62.50;;;;;;4248082;27;20449;-54
2023/06/17 10:34:28;;;;;;;6.03;4.70;;;30.60;62.50;;;;;;4258495;27;20074;-54
2023/06/17 10:36:35;;;;;;;7.25;5.28;;;30.70;61.50;;;;;;4255844;27;20087;-54
2023/06/17 10:38:38;;;;;;;8.35;5.32;;;30.70;61.90;;;;;;4254752;27;20042;-55
2023/06/17 10:40:47;;;;;;;6.80;4.78;;;30.80;61.90;;;;;;4251705;27;20458;-54